sensor_id;sensor_type;location;lat;lon;timestamp;P1;durP1;ratioP1;P2;durP2;ratioP2
34890;SDS011;21103;51.358;12.412;2022-08-21T00:02:15;34.40;;;24.10;;
34890;SDS011;21103;51.358;12.412;2022-08-21T00:04:47;33.85;;;24.42;;
34890;SDS011;21103;51.358;12.412;2022-08-21T00:07:13;34.90;;;23.67;;
34890;SDS011;21103;51.358;12.412;2022-08-21T00:09:38;37.05;;;23.67;;
34890;SDS011;21103;51.358;12.412;2022-08-21T00:12:04;34.88;;;23.48;;
34890;SDS011;21103;51.358;12.412;2022-08-21T00:14:30;34.72;;;23.60;;
34890;SDS011;21103;51.358;12.412;2022-08-21T00:16:56;31.38;;;22.42;;
34890;SDS011;21103;51.358;12.412;2022-08-21T00:19:21;31.33;;;23.55;;
34890;SDS011;21103;51.358;12.412;2022-08-21T00:21:49;29.83;;;21.80;;
34890;SDS011;21103;51.358;12.412;2022-08-21T00:24:16;30.98;;;22.15;;
34890;SDS011;21103;51.358;12.412;2022-08-21T00:26:42;27.98;;;20.48;;
34890;SDS011;21103;51.358;12.412;2022-08-21T00:29:08;34.47;;;22.63;;
34890;SDS011;21103;51.358;12.412;2022-08-21T00:31:34;30.02;;;21.77;;
34890;SDS011;21103;51.358;12.412;2022-08-21T00:34:00;24.27;;;18.45;;
34890;SDS011;21103;51.358;12.412;2022-08-21T00:36:25;31.50;;;20.52;;
34890;SDS011;21103;51.358;12.412;2022-08-21T00:38:51;27.63;;;20.42;;
34890;SDS011;21103;51.358;12.412;2022-08-21T00:41:16;25.75;;;18.95;;
34890;SDS011;21103;51.358;12.412;2022-08-21T00:43:42;23.58;;;17.33;;
34890;SDS011;21103;51.358;12.412;2022-08-21T00:46:07;25.08;;;18.17;;
34890;SDS011;21103;51.358;12.412;2022-08-21T00:48:33;24.80;;;17.35;;
34890;SDS011;21103;51.358;12.412;2022-08-21T00:51:05;21.77;;;16.75;;
34890;SDS011;21103;51.358;12.412;2022-08-21T00:53:39;19.42;;;14.80;;
34890;SDS011;21103;51.358;12.412;2022-08-21T00:56:06;16.58;;;14.40;;
34890;SDS011;21103;51.358;12.412;2022-08-21T00:58:35;20.20;;;15.50;;
34890;SDS011;21103;51.358;12.412;2022-08-21T01:01:03;20.85;;;14.95;;
34890;SDS011;21103;51.358;12.412;2022-08-21T01:03:30;18.17;;;14.40;;
34890;SDS011;21103;51.358;12.412;2022-08-21T01:05:56;15.82;;;12.77;;
34890;SDS011;21103;51.358;12.412;2022-08-21T01:08:21;18.33;;;13.05;;
34890;SDS011;21103;51.358;12.412;2022-08-21T01:10:48;19.65;;;13.00;;
34890;SDS011;21103;51.358;12.412;2022-08-21T01:13:15;18.48;;;14.43;;
34890;SDS011;21103;51.358;12.412;2022-08-21T01:15:44;15.18;;;12.65;;
34890;SDS011;21103;51.358;12.412;2022-08-21T01:18:12;17.50;;;12.50;;
34890;SDS011;21103;51.358;12.412;2022-08-21T01:20:42;17.05;;;11.75;;
34890;SDS011;21103;51.358;12.412;2022-08-21T01:23:09;15.02;;;11.88;;
34890;SDS011;21103;51.358;12.412;2022-08-21T01:25:35;14.15;;;11.52;;
34890;SDS011;21103;51.358;12.412;2022-08-21T01:28:02;13.20;;;10.52;;
34890;SDS011;21103;51.358;12.412;2022-08-21T01:30:33;14.07;;;11.98;;
34890;SDS011;21103;51.358;12.412;2022-08-21T01:33:01;12.25;;;9.82;;
34890;SDS011;21103;51.358;12.412;2022-08-21T01:35:27;10.95;;;9.45;;
34890;SDS011;21103;51.358;12.412;2022-08-21T01:37:53;12.05;;;9.50;;
34890;SDS011;21103;51.358;12.412;2022-08-21T01:40:18;13.02;;;10.63;;
34890;SDS011;21103;51.358;12.412;2022-08-21T01:42:44;14.63;;;11.07;;
34890;SDS011;21103;51.358;12.412;2022-08-21T01:45:11;12.90;;;10.57;;
34890;SDS011;21103;51.358;12.412;2022-08-21T01:47:38;12.30;;;9.73;;
34890;SDS011;21103;51.358;12.412;2022-08-21T01:50:05;14.65;;;10.80;;
34890;SDS011;21103;51.358;12.412;2022-08-21T01:52:33;12.48;;;10.05;;
34890;SDS011;21103;51.358;12.412;2022-08-21T01:54:58;13.90;;;10.65;;
34890;SDS011;21103;51.358;12.412;2022-08-21T01:57:24;14.85;;;11.40;;
34890;SDS011;21103;51.358;12.412;2022-08-21T01:59:49;12.93;;;10.40;;
34890;SDS011;21103;51.358;12.412;2022-08-21T02:02:15;16.17;;;10.43;;
34890;SDS011;21103;51.358;12.412;2022-08-21T02:04:40;12.30;;;10.13;;
34890;SDS011;21103;51.358;12.412;2022-08-21T02:07:06;13.93;;;11.10;;
34890;SDS011;21103;51.358;12.412;2022-08-21T02:09:32;14.07;;;11.45;;
34890;SDS011;21103;51.358;12.412;2022-08-21T02:11:58;12.10;;;10.57;;
34890;SDS011;21103;51.358;12.412;2022-08-21T02:14:24;13.52;;;10.60;;
34890;SDS011;21103;51.358;12.412;2022-08-21T02:16:49;12.00;;;9.65;;
34890;SDS011;21103;51.358;12.412;2022-08-21T02:19:15;13.68;;;10.90;;
34890;SDS011;21103;51.358;12.412;2022-08-21T02:21:40;14.90;;;11.23;;
34890;SDS011;21103;51.358;12.412;2022-08-21T02:24:07;15.80;;;10.85;;
34890;SDS011;21103;51.358;12.412;2022-08-21T02:26:33;12.80;;;10.38;;
34890;SDS011;21103;51.358;12.412;2022-08-21T02:28:59;12.68;;;10.00;;
34890;SDS011;21103;51.358;12.412;2022-08-21T02:31:25;15.07;;;9.82;;
34890;SDS011;21103;51.358;12.412;2022-08-21T02:33:51;19.73;;;10.80;;
34890;SDS011;21103;51.358;12.412;2022-08-21T02:36:16;12.85;;;9.70;;
34890;SDS011;21103;51.358;12.412;2022-08-21T02:38:42;18.70;;;10.27;;
34890;SDS011;21103;51.358;12.412;2022-08-21T02:41:10;13.77;;;10.45;;
34890;SDS011;21103;51.358;12.412;2022-08-21T02:43:43;10.63;;;9.25;;
34890;SDS011;21103;51.358;12.412;2022-08-21T02:46:10;14.10;;;10.82;;
34890;SDS011;21103;51.358;12.412;2022-08-21T02:48:38;13.18;;;10.20;;
34890;SDS011;21103;51.358;12.412;2022-08-21T02:51:06;13.57;;;9.80;;
34890;SDS011;21103;51.358;12.412;2022-08-21T02:53:33;14.43;;;9.93;;
34890;SDS011;21103;51.358;12.412;2022-08-21T02:56:00;12.95;;;10.13;;
34890;SDS011;21103;51.358;12.412;2022-08-21T02:58:30;13.60;;;8.90;;
34890;SDS011;21103;51.358;12.412;2022-08-21T03:00:58;13.00;;;9.75;;
34890;SDS011;21103;51.358;12.412;2022-08-21T03:03:24;12.82;;;9.40;;
34890;SDS011;21103;51.358;12.412;2022-08-21T03:05:51;12.52;;;9.57;;
34890;SDS011;21103;51.358;12.412;2022-08-21T03:08:17;15.15;;;9.35;;
34890;SDS011;21103;51.358;12.412;2022-08-21T03:10:47;11.23;;;8.45;;
34890;SDS011;21103;51.358;12.412;2022-08-21T03:13:15;10.63;;;8.60;;
34890;SDS011;21103;51.358;12.412;2022-08-21T03:15:41;11.00;;;8.70;;
34890;SDS011;21103;51.358;12.412;2022-08-21T03:18:07;11.52;;;8.50;;
34890;SDS011;21103;51.358;12.412;2022-08-21T03:20:34;12.68;;;8.43;;
34890;SDS011;21103;51.358;12.412;2022-08-21T03:23:01;8.73;;;7.68;;
34890;SDS011;21103;51.358;12.412;2022-08-21T03:25:28;11.13;;;8.73;;
34890;SDS011;21103;51.358;12.412;2022-08-21T03:27:56;11.43;;;7.57;;
34890;SDS011;21103;51.358;12.412;2022-08-21T03:30:23;12.23;;;8.15;;
34890;SDS011;21103;51.358;12.412;2022-08-21T03:32:48;12.30;;;8.25;;
34890;SDS011;21103;51.358;12.412;2022-08-21T03:35:15;11.07;;;8.00;;
34890;SDS011;21103;51.358;12.412;2022-08-21T03:37:41;12.73;;;9.50;;
34890;SDS011;21103;51.358;12.412;2022-08-21T03:40:07;10.68;;;8.25;;
34890;SDS011;21103;51.358;12.412;2022-08-21T03:42:33;10.50;;;7.07;;
34890;SDS011;21103;51.358;12.412;2022-08-21T03:44:59;13.02;;;7.55;;
34890;SDS011;21103;51.358;12.412;2022-08-21T03:47:25;9.95;;;7.53;;
34890;SDS011;21103;51.358;12.412;2022-08-21T03:49:51;8.85;;;7.05;;
34890;SDS011;21103;51.358;12.412;2022-08-21T03:52:17;8.07;;;6.68;;
34890;SDS011;21103;51.358;12.412;2022-08-21T03:54:43;10.90;;;7.90;;
34890;SDS011;21103;51.358;12.412;2022-08-21T03:57:09;9.60;;;7.25;;
34890;SDS011;21103;51.358;12.412;2022-08-21T03:59:35;10.07;;;6.90;;
34890;SDS011;21103;51.358;12.412;2022-08-21T04:02:02;7.30;;;6.45;;
34890;SDS011;21103;51.358;12.412;2022-08-21T04:04:29;9.10;;;6.57;;
34890;SDS011;21103;51.358;12.412;2022-08-21T04:06:56;9.32;;;6.40;;
34890;SDS011;21103;51.358;12.412;2022-08-21T04:09:22;7.00;;;5.53;;
34890;SDS011;21103;51.358;12.412;2022-08-21T04:11:48;9.43;;;6.10;;
34890;SDS011;21103;51.358;12.412;2022-08-21T04:14:14;10.80;;;5.70;;
34890;SDS011;21103;51.358;12.412;2022-08-21T04:16:40;10.32;;;6.65;;
34890;SDS011;21103;51.358;12.412;2022-08-21T04:19:07;9.57;;;6.20;;
34890;SDS011;21103;51.358;12.412;2022-08-21T04:21:33;6.57;;;5.57;;
34890;SDS011;21103;51.358;12.412;2022-08-21T04:24:01;7.47;;;6.20;;
34890;SDS011;21103;51.358;12.412;2022-08-21T04:26:26;6.38;;;5.30;;
34890;SDS011;21103;51.358;12.412;2022-08-21T04:28:53;7.07;;;5.20;;
34890;SDS011;21103;51.358;12.412;2022-08-21T04:31:20;7.50;;;5.20;;
34890;SDS011;21103;51.358;12.412;2022-08-21T04:33:46;9.07;;;4.20;;
34890;SDS011;21103;51.358;12.412;2022-08-21T04:36:11;5.88;;;4.95;;
34890;SDS011;21103;51.358;12.412;2022-08-21T04:38:37;6.70;;;4.82;;
34890;SDS011;21103;51.358;12.412;2022-08-21T04:41:03;9.48;;;5.05;;
34890;SDS011;21103;51.358;12.412;2022-08-21T04:43:30;6.10;;;5.15;;
34890;SDS011;21103;51.358;12.412;2022-08-21T04:45:55;5.15;;;3.58;;
34890;SDS011;21103;51.358;12.412;2022-08-21T04:48:22;6.40;;;4.13;;
34890;SDS011;21103;51.358;12.412;2022-08-21T04:56:01;5.30;;;3.28;;
34890;SDS011;21103;51.358;12.412;2022-08-21T04:58:33;8.38;;;4.22;;
34890;SDS011;21103;51.358;12.412;2022-08-21T05:01:01;8.05;;;3.85;;
34890;SDS011;21103;51.358;12.412;2022-08-21T05:03:29;9.45;;;4.47;;
34890;SDS011;21103;51.358;12.412;2022-08-21T05:05:57;5.05;;;3.80;;
34890;SDS011;21103;51.358;12.412;2022-08-21T05:08:23;5.75;;;3.60;;
34890;SDS011;21103;51.358;12.412;2022-08-21T05:10:50;8.68;;;3.13;;
34890;SDS011;21103;51.358;12.412;2022-08-21T05:13:15;6.35;;;3.35;;
34890;SDS011;21103;51.358;12.412;2022-08-21T05:15:41;4.95;;;3.10;;
34890;SDS011;21103;51.358;12.412;2022-08-21T05:18:07;3.47;;;3.08;;
34890;SDS011;21103;51.358;12.412;2022-08-21T05:20:33;5.60;;;3.10;;
34890;SDS011;21103;51.358;12.412;2022-08-21T05:22:59;5.38;;;3.53;;
34890;SDS011;21103;51.358;12.412;2022-08-21T05:25:25;5.70;;;2.97;;
34890;SDS011;21103;51.358;12.412;2022-08-21T05:27:51;4.45;;;3.30;;
34890;SDS011;21103;51.358;12.412;2022-08-21T05:30:18;6.00;;;4.25;;
34890;SDS011;21103;51.358;12.412;2022-08-21T05:32:45;8.65;;;3.35;;
34890;SDS011;21103;51.358;12.412;2022-08-21T05:35:12;5.30;;;3.42;;
34890;SDS011;21103;51.358;12.412;2022-08-21T05:37:38;4.97;;;2.65;;
34890;SDS011;21103;51.358;12.412;2022-08-21T05:40:04;6.50;;;3.05;;
34890;SDS011;21103;51.358;12.412;2022-08-21T05:42:31;7.05;;;3.20;;
34890;SDS011;21103;51.358;12.412;2022-08-21T05:44:57;7.18;;;3.20;;
34890;SDS011;21103;51.358;12.412;2022-08-21T05:47:22;4.70;;;3.08;;
34890;SDS011;21103;51.358;12.412;2022-08-21T05:49:48;5.22;;;3.00;;
34890;SDS011;21103;51.358;12.412;2022-08-21T05:52:17;6.80;;;3.30;;
34890;SDS011;21103;51.358;12.412;2022-08-21T05:54:44;5.82;;;2.85;;
34890;SDS011;21103;51.358;12.412;2022-08-21T05:57:10;6.80;;;3.58;;
34890;SDS011;21103;51.358;12.412;2022-08-21T05:59:35;6.72;;;2.78;;
34890;SDS011;21103;51.358;12.412;2022-08-21T06:02:01;7.75;;;3.70;;
34890;SDS011;21103;51.358;12.412;2022-08-21T06:04:27;8.43;;;2.72;;
34890;SDS011;21103;51.358;12.412;2022-08-21T06:06:52;8.65;;;3.08;;
34890;SDS011;21103;51.358;12.412;2022-08-21T06:09:18;11.65;;;3.83;;
34890;SDS011;21103;51.358;12.412;2022-08-21T06:11:44;4.07;;;2.17;;
34890;SDS011;21103;51.358;12.412;2022-08-21T06:14:09;4.13;;;2.80;;
34890;SDS011;21103;51.358;12.412;2022-08-21T06:16:38;6.35;;;2.55;;
34890;SDS011;21103;51.358;12.412;2022-08-21T06:19:03;3.45;;;2.65;;
34890;SDS011;21103;51.358;12.412;2022-08-21T06:21:29;3.40;;;3.08;;
34890;SDS011;21103;51.358;12.412;2022-08-21T06:23:54;7.40;;;2.60;;
34890;SDS011;21103;51.358;12.412;2022-08-21T06:26:21;3.28;;;2.70;;
34890;SDS011;21103;51.358;12.412;2022-08-21T06:28:48;5.55;;;2.50;;
34890;SDS011;21103;51.358;12.412;2022-08-21T06:31:15;7.32;;;2.80;;
34890;SDS011;21103;51.358;12.412;2022-08-21T06:33:46;5.57;;;2.80;;
34890;SDS011;21103;51.358;12.412;2022-08-21T06:36:13;4.90;;;2.55;;
34890;SDS011;21103;51.358;12.412;2022-08-21T06:38:39;7.88;;;2.45;;
34890;SDS011;21103;51.358;12.412;2022-08-21T06:41:06;4.68;;;2.47;;
34890;SDS011;21103;51.358;12.412;2022-08-21T06:43:32;3.75;;;2.50;;
34890;SDS011;21103;51.358;12.412;2022-08-21T06:45:58;4.30;;;2.47;;
34890;SDS011;21103;51.358;12.412;2022-08-21T06:48:23;5.97;;;2.97;;
34890;SDS011;21103;51.358;12.412;2022-08-21T06:50:50;6.72;;;2.15;;
34890;SDS011;21103;51.358;12.412;2022-08-21T06:53:17;6.28;;;2.75;;
34890;SDS011;21103;51.358;12.412;2022-08-21T06:55:44;3.00;;;1.98;;
34890;SDS011;21103;51.358;12.412;2022-08-21T06:58:10;5.15;;;2.35;;
34890;SDS011;21103;51.358;12.412;2022-08-21T07:00:40;3.47;;;2.40;;
34890;SDS011;21103;51.358;12.412;2022-08-21T07:03:16;7.57;;;3.13;;
34890;SDS011;21103;51.358;12.412;2022-08-21T07:05:46;10.93;;;2.55;;
34890;SDS011;21103;51.358;12.412;2022-08-21T07:08:11;5.65;;;2.85;;
34890;SDS011;21103;51.358;12.412;2022-08-21T07:10:37;2.83;;;2.08;;
34890;SDS011;21103;51.358;12.412;2022-08-21T07:13:02;6.55;;;2.10;;
34890;SDS011;21103;51.358;12.412;2022-08-21T07:15:31;6.25;;;2.33;;
34890;SDS011;21103;51.358;12.412;2022-08-21T07:17:57;3.80;;;1.73;;
34890;SDS011;21103;51.358;12.412;2022-08-21T07:20:24;2.63;;;1.75;;
34890;SDS011;21103;51.358;12.412;2022-08-21T07:22:50;4.03;;;1.90;;
34890;SDS011;21103;51.358;12.412;2022-08-21T07:25:15;5.03;;;2.17;;
34890;SDS011;21103;51.358;12.412;2022-08-21T07:27:41;5.78;;;1.95;;
34890;SDS011;21103;51.358;12.412;2022-08-21T07:30:06;7.00;;;1.70;;
34890;SDS011;21103;51.358;12.412;2022-08-21T07:32:32;5.22;;;2.28;;
34890;SDS011;21103;51.358;12.412;2022-08-21T07:34:58;6.65;;;1.98;;
34890;SDS011;21103;51.358;12.412;2022-08-21T07:37:23;4.47;;;1.77;;
34890;SDS011;21103;51.358;12.412;2022-08-21T07:39:49;4.15;;;1.70;;
34890;SDS011;21103;51.358;12.412;2022-08-21T07:42:16;9.15;;;3.17;;
34890;SDS011;21103;51.358;12.412;2022-08-21T07:44:41;4.20;;;1.90;;
34890;SDS011;21103;51.358;12.412;2022-08-21T07:47:07;4.75;;;2.10;;
34890;SDS011;21103;51.358;12.412;2022-08-21T07:49:33;4.65;;;1.70;;
34890;SDS011;21103;51.358;12.412;2022-08-21T07:51:58;4.00;;;1.85;;
34890;SDS011;21103;51.358;12.412;2022-08-21T07:54:24;6.93;;;2.10;;
34890;SDS011;21103;51.358;12.412;2022-08-21T07:56:50;5.10;;;1.88;;
34890;SDS011;21103;51.358;12.412;2022-08-21T07:59:15;6.43;;;1.50;;
34890;SDS011;21103;51.358;12.412;2022-08-21T08:01:41;5.78;;;1.40;;
34890;SDS011;21103;51.358;12.412;2022-08-21T08:04:06;6.32;;;1.45;;
34890;SDS011;21103;51.358;12.412;2022-08-21T08:06:32;4.57;;;1.92;;
34890;SDS011;21103;51.358;12.412;2022-08-21T08:08:57;6.15;;;1.95;;
34890;SDS011;21103;51.358;12.412;2022-08-21T08:11:23;7.15;;;2.28;;
34890;SDS011;21103;51.358;12.412;2022-08-21T08:13:49;3.10;;;1.52;;
34890;SDS011;21103;51.358;12.412;2022-08-21T08:16:17;5.13;;;1.60;;
34890;SDS011;21103;51.358;12.412;2022-08-21T08:18:43;2.40;;;1.42;;
34890;SDS011;21103;51.358;12.412;2022-08-21T08:21:09;4.80;;;1.92;;
34890;SDS011;21103;51.358;12.412;2022-08-21T08:23:35;2.55;;;1.42;;
34890;SDS011;21103;51.358;12.412;2022-08-21T08:26:01;4.43;;;1.20;;
34890;SDS011;21103;51.358;12.412;2022-08-21T08:28:30;3.25;;;1.20;;
34890;SDS011;21103;51.358;12.412;2022-08-21T08:30:56;7.50;;;1.48;;
34890;SDS011;21103;51.358;12.412;2022-08-21T08:33:23;3.42;;;1.73;;
34890;SDS011;21103;51.358;12.412;2022-08-21T08:35:49;6.75;;;1.85;;
34890;SDS011;21103;51.358;12.412;2022-08-21T08:38:16;3.72;;;1.38;;
34890;SDS011;21103;51.358;12.412;2022-08-21T08:40:52;4.88;;;1.35;;
34890;SDS011;21103;51.358;12.412;2022-08-21T08:43:20;5.57;;;1.25;;
34890;SDS011;21103;51.358;12.412;2022-08-21T08:45:48;3.50;;;1.70;;
34890;SDS011;21103;51.358;12.412;2022-08-21T08:48:21;5.43;;;1.48;;
34890;SDS011;21103;51.358;12.412;2022-08-21T08:51:04;4.15;;;1.20;;
34890;SDS011;21103;51.358;12.412;2022-08-21T08:53:42;2.75;;;1.17;;
34890;SDS011;21103;51.358;12.412;2022-08-21T08:56:15;2.60;;;1.63;;
34890;SDS011;21103;51.358;12.412;2022-08-21T08:58:46;5.25;;;1.00;;
34890;SDS011;21103;51.358;12.412;2022-08-21T09:01:15;9.38;;;1.63;;
34890;SDS011;21103;51.358;12.412;2022-08-21T09:03:44;6.22;;;1.90;;
34890;SDS011;21103;51.358;12.412;2022-08-21T09:06:21;8.00;;;1.45;;
34890;SDS011;21103;51.358;12.412;2022-08-21T09:11:45;3.58;;;1.30;;
34890;SDS011;21103;51.358;12.412;2022-08-21T09:22:52;1.98;;;0.90;;
34890;SDS011;21103;51.358;12.412;2022-08-21T09:25:59;3.67;;;1.70;;
34890;SDS011;21103;51.358;12.412;2022-08-21T09:28:33;6.20;;;1.33;;
34890;SDS011;21103;51.358;12.412;2022-08-21T09:30:59;5.68;;;1.60;;
34890;SDS011;21103;51.358;12.412;2022-08-21T09:33:28;4.82;;;1.33;;
34890;SDS011;21103;51.358;12.412;2022-08-21T09:35:55;4.93;;;1.23;;
34890;SDS011;21103;51.358;12.412;2022-08-21T09:38:25;4.75;;;1.38;;
34890;SDS011;21103;51.358;12.412;2022-08-21T09:40:59;3.70;;;1.45;;
34890;SDS011;21103;51.358;12.412;2022-08-21T09:43:28;5.77;;;1.90;;
34890;SDS011;21103;51.358;12.412;2022-08-21T09:46:08;5.00;;;1.48;;
34890;SDS011;21103;51.358;12.412;2022-08-21T09:48:43;3.42;;;1.20;;
34890;SDS011;21103;51.358;12.412;2022-08-21T09:51:18;3.55;;;0.98;;
34890;SDS011;21103;51.358;12.412;2022-08-21T09:53:56;4.88;;;1.17;;
34890;SDS011;21103;51.358;12.412;2022-08-21T09:56:32;4.18;;;1.50;;
34890;SDS011;21103;51.358;12.412;2022-08-21T10:01:51;1.85;;;0.98;;
34890;SDS011;21103;51.358;12.412;2022-08-21T10:04:24;7.00;;;1.20;;
34890;SDS011;21103;51.358;12.412;2022-08-21T10:06:53;3.10;;;0.90;;
34890;SDS011;21103;51.358;12.412;2022-08-21T10:09:20;6.70;;;1.08;;
34890;SDS011;21103;51.358;12.412;2022-08-21T10:11:59;3.72;;;1.20;;
34890;SDS011;21103;51.358;12.412;2022-08-21T10:14:59;3.65;;;1.73;;
34890;SDS011;21103;51.358;12.412;2022-08-21T10:17:36;2.30;;;0.82;;
34890;SDS011;21103;51.358;12.412;2022-08-21T10:20:20;1.83;;;0.82;;
34890;SDS011;21103;51.358;12.412;2022-08-21T10:26:02;4.03;;;1.20;;
34890;SDS011;21103;51.358;12.412;2022-08-21T10:31:36;3.45;;;1.10;;
34890;SDS011;21103;51.358;12.412;2022-08-21T10:34:20;2.47;;;1.00;;
34890;SDS011;21103;51.358;12.412;2022-08-21T10:39:39;7.10;;;1.33;;
34890;SDS011;21103;51.358;12.412;2022-08-21T10:42:13;2.60;;;1.08;;
34890;SDS011;21103;51.358;12.412;2022-08-21T10:45:04;2.53;;;0.82;;
34890;SDS011;21103;51.358;12.412;2022-08-21T10:50:17;3.28;;;1.30;;
34890;SDS011;21103;51.358;12.412;2022-08-21T10:55:16;4.20;;;1.05;;
34890;SDS011;21103;51.358;12.412;2022-08-21T10:57:59;2.85;;;0.90;;
34890;SDS011;21103;51.358;12.412;2022-08-21T11:00:40;3.85;;;0.95;;
34890;SDS011;21103;51.358;12.412;2022-08-21T11:03:13;2.75;;;0.77;;
34890;SDS011;21103;51.358;12.412;2022-08-21T11:05:53;4.68;;;1.42;;
34890;SDS011;21103;51.358;12.412;2022-08-21T11:08:41;6.53;;;1.30;;
34890;SDS011;21103;51.358;12.412;2022-08-21T11:11:20;4.93;;;1.17;;
34890;SDS011;21103;51.358;12.412;2022-08-21T11:13:58;4.13;;;0.80;;
34890;SDS011;21103;51.358;12.412;2022-08-21T11:16:49;4.53;;;1.00;;
34890;SDS011;21103;51.358;12.412;2022-08-21T11:19:24;7.90;;;1.67;;
34890;SDS011;21103;51.358;12.412;2022-08-21T11:22:07;3.67;;;1.17;;
34890;SDS011;21103;51.358;12.412;2022-08-21T11:24:54;2.75;;;0.85;;
34890;SDS011;21103;51.358;12.412;2022-08-21T11:27:36;4.57;;;1.23;;
34890;SDS011;21103;51.358;12.412;2022-08-21T11:30:11;2.78;;;0.95;;
34890;SDS011;21103;51.358;12.412;2022-08-21T11:32:57;7.95;;;1.27;;
34890;SDS011;21103;51.358;12.412;2022-08-21T11:43:43;3.60;;;0.82;;
34890;SDS011;21103;51.358;12.412;2022-08-21T11:52:19;5.90;;;0.88;;
34890;SDS011;21103;51.358;12.412;2022-08-21T11:54:46;4.43;;;1.00;;
34890;SDS011;21103;51.358;12.412;2022-08-21T11:57:29;5.07;;;1.20;;
34890;SDS011;21103;51.358;12.412;2022-08-21T12:00:23;5.47;;;1.00;;
34890;SDS011;21103;51.358;12.412;2022-08-21T12:02:55;2.75;;;0.88;;
34890;SDS011;21103;51.358;12.412;2022-08-21T12:05:30;2.72;;;0.88;;
34890;SDS011;21103;51.358;12.412;2022-08-21T12:08:01;3.15;;;0.95;;
34890;SDS011;21103;51.358;12.412;2022-08-21T12:10:40;3.50;;;1.08;;
34890;SDS011;21103;51.358;12.412;2022-08-21T12:13:20;4.22;;;0.80;;
34890;SDS011;21103;51.358;12.412;2022-08-21T12:15:48;2.45;;;1.08;;
34890;SDS011;21103;51.358;12.412;2022-08-21T12:26:50;6.10;;;1.17;;
34890;SDS011;21103;51.358;12.412;2022-08-21T12:29:28;6.10;;;1.70;;
34890;SDS011;21103;51.358;12.412;2022-08-21T12:31:59;6.63;;;1.70;;
34890;SDS011;21103;51.358;12.412;2022-08-21T12:37:20;4.93;;;0.90;;
34890;SDS011;21103;51.358;12.412;2022-08-21T12:40:00;4.38;;;0.90;;
34890;SDS011;21103;51.358;12.412;2022-08-21T12:42:37;3.10;;;0.82;;
34890;SDS011;21103;51.358;12.412;2022-08-21T12:45:11;4.82;;;1.02;;
34890;SDS011;21103;51.358;12.412;2022-08-21T12:48:03;6.03;;;1.20;;
34890;SDS011;21103;51.358;12.412;2022-08-21T12:56:01;4.28;;;0.98;;
34890;SDS011;21103;51.358;12.412;2022-08-21T12:58:28;2.92;;;0.93;;
34890;SDS011;21103;51.358;12.412;2022-08-21T13:01:03;3.58;;;1.00;;
34890;SDS011;21103;51.358;12.412;2022-08-21T13:03:33;5.25;;;1.40;;
34890;SDS011;21103;51.358;12.412;2022-08-21T13:06:02;3.85;;;1.10;;
34890;SDS011;21103;51.358;12.412;2022-08-21T13:08:29;3.15;;;1.05;;
34890;SDS011;21103;51.358;12.412;2022-08-21T13:10:58;4.25;;;1.10;;
34890;SDS011;21103;51.358;12.412;2022-08-21T13:13:27;6.15;;;1.10;;
34890;SDS011;21103;51.358;12.412;2022-08-21T13:15:57;4.28;;;1.38;;
34890;SDS011;21103;51.358;12.412;2022-08-21T13:18:27;3.42;;;1.15;;
34890;SDS011;21103;51.358;12.412;2022-08-21T13:23:30;3.20;;;0.82;;
34890;SDS011;21103;51.358;12.412;2022-08-21T13:25:56;7.75;;;1.13;;
34890;SDS011;21103;51.358;12.412;2022-08-21T13:28:22;2.00;;;0.77;;
34890;SDS011;21103;51.358;12.412;2022-08-21T13:30:52;6.63;;;1.30;;
34890;SDS011;21103;51.358;12.412;2022-08-21T13:33:20;3.28;;;1.23;;
34890;SDS011;21103;51.358;12.412;2022-08-21T13:36:03;3.92;;;1.23;;
34890;SDS011;21103;51.358;12.412;2022-08-21T13:38:34;3.10;;;0.95;;
34890;SDS011;21103;51.358;12.412;2022-08-21T13:41:06;4.45;;;1.10;;
34890;SDS011;21103;51.358;12.412;2022-08-21T13:43:58;4.45;;;1.17;;
34890;SDS011;21103;51.358;12.412;2022-08-21T13:46:27;3.85;;;1.08;;
34890;SDS011;21103;51.358;12.412;2022-08-21T13:48:59;2.55;;;1.00;;
34890;SDS011;21103;51.358;12.412;2022-08-21T13:51:26;4.72;;;1.50;;
34890;SDS011;21103;51.358;12.412;2022-08-21T13:53:52;2.80;;;1.58;;
34890;SDS011;21103;51.358;12.412;2022-08-21T13:56:24;1.98;;;0.90;;
34890;SDS011;21103;51.358;12.412;2022-08-21T13:58:56;5.50;;;0.90;;
34890;SDS011;21103;51.358;12.412;2022-08-21T14:01:39;7.57;;;1.50;;
34890;SDS011;21103;51.358;12.412;2022-08-21T14:04:18;3.67;;;1.33;;
34890;SDS011;21103;51.358;12.412;2022-08-21T14:06:49;3.08;;;1.20;;
34890;SDS011;21103;51.358;12.412;2022-08-21T14:09:24;4.68;;;1.33;;
34890;SDS011;21103;51.358;12.412;2022-08-21T14:11:56;4.78;;;1.35;;
34890;SDS011;21103;51.358;12.412;2022-08-21T14:14:26;4.38;;;1.45;;
34890;SDS011;21103;51.358;12.412;2022-08-21T14:17:00;4.90;;;1.48;;
34890;SDS011;21103;51.358;12.412;2022-08-21T14:19:44;3.05;;;1.10;;
34890;SDS011;21103;51.358;12.412;2022-08-21T14:22:37;3.88;;;1.27;;
34890;SDS011;21103;51.358;12.412;2022-08-21T14:27:34;3.38;;;1.42;;
34890;SDS011;21103;51.358;12.412;2022-08-21T14:30:09;5.25;;;1.33;;
34890;SDS011;21103;51.358;12.412;2022-08-21T14:32:47;5.47;;;1.50;;
34890;SDS011;21103;51.358;12.412;2022-08-21T14:35:13;2.22;;;0.80;;
34890;SDS011;21103;51.358;12.412;2022-08-21T14:37:42;4.97;;;1.45;;
34890;SDS011;21103;51.358;12.412;2022-08-21T14:40:10;4.13;;;1.00;;
34890;SDS011;21103;51.358;12.412;2022-08-21T14:42:36;4.32;;;1.10;;
34890;SDS011;21103;51.358;12.412;2022-08-21T14:45:05;5.22;;;1.25;;
34890;SDS011;21103;51.358;12.412;2022-08-21T14:47:40;3.10;;;1.23;;
34890;SDS011;21103;51.358;12.412;2022-08-21T14:50:07;1.67;;;1.05;;
34890;SDS011;21103;51.358;12.412;2022-08-21T14:52:33;4.78;;;1.30;;
34890;SDS011;21103;51.358;12.412;2022-08-21T14:55:00;3.63;;;1.25;;
34890;SDS011;21103;51.358;12.412;2022-08-21T14:57:25;2.50;;;0.80;;
34890;SDS011;21103;51.358;12.412;2022-08-21T14:59:54;2.88;;;0.77;;
34890;SDS011;21103;51.358;12.412;2022-08-21T15:02:19;2.88;;;0.70;;
34890;SDS011;21103;51.358;12.412;2022-08-21T15:04:45;3.42;;;0.95;;
34890;SDS011;21103;51.358;12.412;2022-08-21T15:07:10;3.15;;;1.00;;
34890;SDS011;21103;51.358;12.412;2022-08-21T15:09:36;2.83;;;1.00;;
34890;SDS011;21103;51.358;12.412;2022-08-21T15:12:02;2.28;;;0.80;;
34890;SDS011;21103;51.358;12.412;2022-08-21T15:14:31;5.53;;;1.10;;
34890;SDS011;21103;51.358;12.412;2022-08-21T15:16:59;5.07;;;1.20;;
34890;SDS011;21103;51.358;12.412;2022-08-21T15:19:25;5.18;;;1.15;;
34890;SDS011;21103;51.358;12.412;2022-08-21T15:21:51;3.90;;;1.10;;
34890;SDS011;21103;51.358;12.412;2022-08-21T15:24:16;3.90;;;1.20;;
34890;SDS011;21103;51.358;12.412;2022-08-21T15:26:42;2.35;;;1.10;;
34890;SDS011;21103;51.358;12.412;2022-08-21T15:29:08;3.50;;;1.27;;
34890;SDS011;21103;51.358;12.412;2022-08-21T15:31:34;3.55;;;0.93;;
34890;SDS011;21103;51.358;12.412;2022-08-21T15:34:00;5.45;;;1.02;;
34890;SDS011;21103;51.358;12.412;2022-08-21T15:36:26;2.05;;;1.02;;
34890;SDS011;21103;51.358;12.412;2022-08-21T15:38:52;3.63;;;0.82;;
34890;SDS011;21103;51.358;12.412;2022-08-21T15:41:17;4.45;;;1.08;;
34890;SDS011;21103;51.358;12.412;2022-08-21T15:43:49;1.70;;;0.80;;
34890;SDS011;21103;51.358;12.412;2022-08-21T15:46:17;4.78;;;1.23;;
34890;SDS011;21103;51.358;12.412;2022-08-21T15:48:44;4.85;;;0.90;;
34890;SDS011;21103;51.358;12.412;2022-08-21T15:51:11;5.15;;;0.80;;